sensor_id;sensor_type;location;lat;lon;timestamp;temperature;humidity
7384;DHT22;3733;47.994;8.820;2024-01-16T00:00:45;-3.10;59.70
7384;DHT22;3733;47.994;8.820;2024-01-16T00:03:12;-3.20;59.60
7384;DHT22;3733;47.994;8.820;2024-01-16T00:05:37;-3.20;59.50
7384;DHT22;3733;47.994;8.820;2024-01-16T00:08:03;-3.20;59.50
7384;DHT22;3733;47.994;8.820;2024-01-16T00:10:29;-3.20;59.50
7384;DHT22;3733;47.994;8.820;2024-01-16T00:12:54;-3.20;59.60
7384;DHT22;3733;47.994;8.820;2024-01-16T00:15:20;-3.20;59.70
7384;DHT22;3733;47.994;8.820;2024-01-16T00:17:46;-3.20;60.00
7384;DHT22;3733;47.994;8.820;2024-01-16T00:20:11;-3.20;60.30
7384;DHT22;3733;47.994;8.820;2024-01-16T00:22:37;-3.30;60.10
7384;DHT22;3733;47.994;8.820;2024-01-16T00:25:03;-3.40;59.90
7384;DHT22;3733;47.994;8.820;2024-01-16T00:27:28;-3.40;59.80
7384;DHT22;3733;47.994;8.820;2024-01-16T00:29:54;-3.50;60.10
7384;DHT22;3733;47.994;8.820;2024-01-16T00:32:20;-3.50;60.60
7384;DHT22;3733;47.994;8.820;2024-01-16T00:34:45;-3.60;60.90
7384;DHT22;3733;47.994;8.820;2024-01-16T00:37:11;-3.70;61.20
7384;DHT22;3733;47.994;8.820;2024-01-16T00:39:37;-3.70;61.50
7384;DHT22;3733;47.994;8.820;2024-01-16T00:42:03;-3.80;61.60
7384;DHT22;3733;47.994;8.820;2024-01-16T00:44:29;-3.80;61.80
7384;DHT22;3733;47.994;8.820;2024-01-16T00:46:54;-3.90;62.00
7384;DHT22;3733;47.994;8.820;2024-01-16T00:49:20;-4.00;62.10
7384;DHT22;3733;47.994;8.820;2024-01-16T00:51:45;-4.00;62.40
7384;DHT22;3733;47.994;8.820;2024-01-16T00:54:11;-4.10;62.80
7384;DHT22;3733;47.994;8.820;2024-01-16T00:56:37;-4.20;63.20
7384;DHT22;3733;47.994;8.820;2024-01-16T00:59:02;-4.30;63.60
7384;DHT22;3733;47.994;8.820;2024-01-16T01:01:28;-4.30;63.90
7384;DHT22;3733;47.994;8.820;2024-01-16T01:03:54;-4.40;64.30
7384;DHT22;3733;47.994;8.820;2024-01-16T01:06:20;-4.40;64.90
7384;DHT22;3733;47.994;8.820;2024-01-16T01:08:46;-4.40;65.10
7384;DHT22;3733;47.994;8.820;2024-01-16T01:11:12;-4.50;65.00
7384;DHT22;3733;47.994;8.820;2024-01-16T01:13:38;-4.50;65.20
7384;DHT22;3733;47.994;8.820;2024-01-16T01:16:04;-4.50;65.40
7384;DHT22;3733;47.994;8.820;2024-01-16T01:18:29;-4.50;65.40
7384;DHT22;3733;47.994;8.820;2024-01-16T01:20:55;-4.60;65.50
7384;DHT22;3733;47.994;8.820;2024-01-16T01:23:21;-4.70;66.10
7384;DHT22;3733;47.994;8.820;2024-01-16T01:25:47;-4.70;66.50
7384;DHT22;3733;47.994;8.820;2024-01-16T01:28:12;-4.80;66.50
7384;DHT22;3733;47.994;8.820;2024-01-16T01:30:38;-4.80;67.10
7384;DHT22;3733;47.994;8.820;2024-01-16T01:33:04;-4.80;68.10
7384;DHT22;3733;47.994;8.820;2024-01-16T01:35:30;-4.80;68.30
7384;DHT22;3733;47.994;8.820;2024-01-16T01:37:56;-4.80;67.70
7384;DHT22;3733;47.994;8.820;2024-01-16T01:40:21;-4.90;67.90
7384;DHT22;3733;47.994;8.820;2024-01-16T01:42:47;-4.90;68.60
7384;DHT22;3733;47.994;8.820;2024-01-16T01:45:13;-4.90;68.90
7384;DHT22;3733;47.994;8.820;2024-01-16T01:47:40;-5.00;69.00
7384;DHT22;3733;47.994;8.820;2024-01-16T01:50:08;-5.00;69.40
7384;DHT22;3733;47.994;8.820;2024-01-16T01:52:35;-5.00;69.50
7384;DHT22;3733;47.994;8.820;2024-01-16T01:55:02;-5.10;69.60
7384;DHT22;3733;47.994;8.820;2024-01-16T01:57:29;-5.10;69.50
7384;DHT22;3733;47.994;8.820;2024-01-16T01:59:55;-5.10;69.60
7384;DHT22;3733;47.994;8.820;2024-01-16T02:02:21;-5.10;69.90
7384;DHT22;3733;47.994;8.820;2024-01-16T02:04:47;-5.20;69.80
7384;DHT22;3733;47.994;8.820;2024-01-16T02:07:13;-5.30;69.80
7384;DHT22;3733;47.994;8.820;2024-01-16T02:09:40;-5.30;70.70
7384;DHT22;3733;47.994;8.820;2024-01-16T02:12:07;-5.40;70.50
7384;DHT22;3733;47.994;8.820;2024-01-16T02:14:32;-5.40;70.80
7384;DHT22;3733;47.994;8.820;2024-01-16T02:16:58;-5.50;71.50
7384;DHT22;3733;47.994;8.820;2024-01-16T02:19:24;-5.50;72.10
7384;DHT22;3733;47.994;8.820;2024-01-16T02:21:54;-5.50;72.20
7384;DHT22;3733;47.994;8.820;2024-01-16T02:24:21;-5.60;71.90
7384;DHT22;3733;47.994;8.820;2024-01-16T02:26:47;-5.60;72.70
7384;DHT22;3733;47.994;8.820;2024-01-16T02:29:13;-5.60;72.80
7384;DHT22;3733;47.994;8.820;2024-01-16T02:31:38;-5.70;73.30
7384;DHT22;3733;47.994;8.820;2024-01-16T02:34:04;-5.80;72.90
7384;DHT22;3733;47.994;8.820;2024-01-16T02:36:30;-5.80;73.20
7384;DHT22;3733;47.994;8.820;2024-01-16T02:38:56;-5.90;73.30
7384;DHT22;3733;47.994;8.820;2024-01-16T02:41:21;-5.90;73.70
7384;DHT22;3733;47.994;8.820;2024-01-16T02:43:47;-6.00;74.10
7384;DHT22;3733;47.994;8.820;2024-01-16T02:46:16;-6.00;74.40
7384;DHT22;3733;47.994;8.820;2024-01-16T02:48:42;-6.00;74.20
7384;DHT22;3733;47.994;8.820;2024-01-16T02:51:08;-6.10;73.70
7384;DHT22;3733;47.994;8.820;2024-01-16T02:53:34;-6.10;73.00
7384;DHT22;3733;47.994;8.820;2024-01-16T02:56:00;-6.20;73.30
7384;DHT22;3733;47.994;8.820;2024-01-16T02:58:29;-6.30;73.10
7384;DHT22;3733;47.994;8.820;2024-01-16T03:00:56;-6.30;73.20
7384;DHT22;3733;47.994;8.820;2024-01-16T03:03:22;-6.40;73.50
7384;DHT22;3733;47.994;8.820;2024-01-16T03:05:49;-6.40;73.60
7384;DHT22;3733;47.994;8.820;2024-01-16T03:08:14;-6.50;74.50
7384;DHT22;3733;47.994;8.820;2024-01-16T03:10:40;-6.50;76.30
7384;DHT22;3733;47.994;8.820;2024-01-16T03:13:06;-6.50;77.80
7384;DHT22;3733;47.994;8.820;2024-01-16T03:15:32;-6.60;78.30
7384;DHT22;3733;47.994;8.820;2024-01-16T03:18:01;-6.60;78.90
7384;DHT22;3733;47.994;8.820;2024-01-16T03:20:27;-6.60;79.50
7384;DHT22;3733;47.994;8.820;2024-01-16T03:22:53;-6.60;78.20
7384;DHT22;3733;47.994;8.820;2024-01-16T03:25:19;-6.60;78.10
7384;DHT22;3733;47.994;8.820;2024-01-16T03:27:45;-6.70;78.10
7384;DHT22;3733;47.994;8.820;2024-01-16T03:30:11;-6.70;78.30
7384;DHT22;3733;47.994;8.820;2024-01-16T03:32:37;-6.70;78.60
7384;DHT22;3733;47.994;8.820;2024-01-16T03:35:03;-6.80;79.10
7384;DHT22;3733;47.994;8.820;2024-01-16T03:37:29;-6.80;79.40
7384;DHT22;3733;47.994;8.820;2024-01-16T03:39:55;-6.80;79.10
7384;DHT22;3733;47.994;8.820;2024-01-16T03:42:22;-6.80;79.50
7384;DHT22;3733;47.994;8.820;2024-01-16T03:44:48;-6.90;80.90
7384;DHT22;3733;47.994;8.820;2024-01-16T03:47:13;-6.90;80.50
7384;DHT22;3733;47.994;8.820;2024-01-16T03:49:39;-6.90;80.60
7384;DHT22;3733;47.994;8.820;2024-01-16T03:52:05;-6.90;80.20
7384;DHT22;3733;47.994;8.820;2024-01-16T03:54:30;-6.90;80.10
7384;DHT22;3733;47.994;8.820;2024-01-16T03:56:56;-7.00;79.40
7384;DHT22;3733;47.994;8.820;2024-01-16T03:59:22;-7.00;79.10
7384;DHT22;3733;47.994;8.820;2024-01-16T04:01:47;-7.10;79.20
7384;DHT22;3733;47.994;8.820;2024-01-16T04:04:15;-7.10;79.50
7384;DHT22;3733;47.994;8.820;2024-01-16T04:06:40;-7.10;80.70
7384;DHT22;3733;47.994;8.820;2024-01-16T04:09:07;-7.20;80.80
7384;DHT22;3733;47.994;8.820;2024-01-16T04:11:33;-7.20;80.50
7384;DHT22;3733;47.994;8.820;2024-01-16T04:13:59;-7.20;81.60
7384;DHT22;3733;47.994;8.820;2024-01-16T04:16:25;-7.20;81.30
7384;DHT22;3733;47.994;8.820;2024-01-16T04:18:51;-7.30;80.80
7384;DHT22;3733;47.994;8.820;2024-01-16T04:21:16;-7.30;80.70
7384;DHT22;3733;47.994;8.820;2024-01-16T04:23:42;-7.30;81.70
7384;DHT22;3733;47.994;8.820;2024-01-16T04:26:08;-7.30;82.50
7384;DHT22;3733;47.994;8.820;2024-01-16T04:28:34;-7.30;83.00
7384;DHT22;3733;47.994;8.820;2024-01-16T04:31:03;-7.40;82.80
7384;DHT22;3733;47.994;8.820;2024-01-16T04:33:29;-7.40;83.50
7384;DHT22;3733;47.994;8.820;2024-01-16T04:35:55;-7.40;83.60
7384;DHT22;3733;47.994;8.820;2024-01-16T04:38:21;-7.40;83.30
7384;DHT22;3733;47.994;8.820;2024-01-16T04:40:47;-7.40;84.00
7384;DHT22;3733;47.994;8.820;2024-01-16T04:43:12;-7.40;83.90
7384;DHT22;3733;47.994;8.820;2024-01-16T04:45:38;-7.50;84.00
7384;DHT22;3733;47.994;8.820;2024-01-16T04:48:04;-7.50;84.60
7384;DHT22;3733;47.994;8.820;2024-01-16T04:50:29;-7.50;83.80
7384;DHT22;3733;47.994;8.820;2024-01-16T04:52:58;-7.50;83.70
7384;DHT22;3733;47.994;8.820;2024-01-16T04:55:30;-7.50;83.00
7384;DHT22;3733;47.994;8.820;2024-01-16T04:57:56;-7.60;82.60
7384;DHT22;3733;47.994;8.820;2024-01-16T05:00:23;-7.60;82.30
7384;DHT22;3733;47.994;8.820;2024-01-16T05:02:48;-7.60;82.40
7384;DHT22;3733;47.994;8.820;2024-01-16T05:05:14;-7.70;81.60
7384;DHT22;3733;47.994;8.820;2024-01-16T05:07:40;-7.70;82.10
7384;DHT22;3733;47.994;8.820;2024-01-16T05:10:09;-7.70;82.80
7384;DHT22;3733;47.994;8.820;2024-01-16T05:12:34;-7.70;82.50
7384;DHT22;3733;47.994;8.820;2024-01-16T05:15:00;-7.70;82.70
7384;DHT22;3733;47.994;8.820;2024-01-16T05:17:26;-7.80;82.80
7384;DHT22;3733;47.994;8.820;2024-01-16T05:19:54;-7.80;82.50
7384;DHT22;3733;47.994;8.820;2024-01-16T05:22:23;-7.80;82.90
7384;DHT22;3733;47.994;8.820;2024-01-16T05:24:50;-7.80;82.20
7384;DHT22;3733;47.994;8.820;2024-01-16T05:27:16;-7.80;81.50
7384;DHT22;3733;47.994;8.820;2024-01-16T05:29:42;-7.90;80.40
7384;DHT22;3733;47.994;8.820;2024-01-16T05:32:07;-7.90;80.70
7384;DHT22;3733;47.994;8.820;2024-01-16T05:34:33;-7.90;80.80
7384;DHT22;3733;47.994;8.820;2024-01-16T05:36:58;-8.00;80.40
7384;DHT22;3733;47.994;8.820;2024-01-16T05:39:24;-8.00;80.60
7384;DHT22;3733;47.994;8.820;2024-01-16T05:41:50;-8.00;81.00
7384;DHT22;3733;47.994;8.820;2024-01-16T05:44:15;-8.00;80.80
7384;DHT22;3733;47.994;8.820;2024-01-16T05:46:42;-8.00;81.10
7384;DHT22;3733;47.994;8.820;2024-01-16T05:49:08;-8.10;82.30
7384;DHT22;3733;47.994;8.820;2024-01-16T05:51:33;-8.10;83.30
7384;DHT22;3733;47.994;8.820;2024-01-16T05:53:59;-8.10;84.00
7384;DHT22;3733;47.994;8.820;2024-01-16T05:56:24;-8.10;83.70
7384;DHT22;3733;47.994;8.820;2024-01-16T05:58:50;-8.10;84.70
7384;DHT22;3733;47.994;8.820;2024-01-16T06:01:17;-8.10;86.50
7384;DHT22;3733;47.994;8.820;2024-01-16T06:03:43;-8.10;87.50
7384;DHT22;3733;47.994;8.820;2024-01-16T06:06:10;-8.10;87.20
7384;DHT22;3733;47.994;8.820;2024-01-16T06:08:36;-8.10;86.50
7384;DHT22;3733;47.994;8.820;2024-01-16T06:11:02;-8.10;87.40
7384;DHT22;3733;47.994;8.820;2024-01-16T06:13:27;-8.10;87.10
7384;DHT22;3733;47.994;8.820;2024-01-16T06:15:55;-8.10;86.60
7384;DHT22;3733;47.994;8.820;2024-01-16T06:18:21;-8.10;86.10
7384;DHT22;3733;47.994;8.820;2024-01-16T06:20:46;-8.10;85.20
7384;DHT22;3733;47.994;8.820;2024-01-16T06:23:12;-8.10;86.30
7384;DHT22;3733;47.994;8.820;2024-01-16T06:25:37;-8.10;86.20
7384;DHT22;3733;47.994;8.820;2024-01-16T06:28:03;-8.10;85.60
7384;DHT22;3733;47.994;8.820;2024-01-16T06:30:30;-8.10;85.60
7384;DHT22;3733;47.994;8.820;2024-01-16T06:32:56;-8.20;86.10
7384;DHT22;3733;47.994;8.820;2024-01-16T06:35:22;-8.20;86.50
7384;DHT22;3733;47.994;8.820;2024-01-16T06:37:49;-8.20;86.30
7384;DHT22;3733;47.994;8.820;2024-01-16T06:40:14;-8.20;85.60
7384;DHT22;3733;47.994;8.820;2024-01-16T06:42:40;-8.20;85.00
7384;DHT22;3733;47.994;8.820;2024-01-16T06:45:06;-8.20;85.80
7384;DHT22;3733;47.994;8.820;2024-01-16T06:47:32;-8.20;86.50
7384;DHT22;3733;47.994;8.820;2024-01-16T06:49:58;-8.30;87.30
7384;DHT22;3733;47.994;8.820;2024-01-16T06:52:23;-8.30;87.30
7384;DHT22;3733;47.994;8.820;2024-01-16T06:54:50;-8.30;87.30
7384;DHT22;3733;47.994;8.820;2024-01-16T06:57:15;-8.30;88.00
7384;DHT22;3733;47.994;8.820;2024-01-16T06:59:41;-8.30;88.10
7384;DHT22;3733;47.994;8.820;2024-01-16T07:02:07;-8.30;88.00
7384;DHT22;3733;47.994;8.820;2024-01-16T07:04:33;-8.30;88.60
7384;DHT22;3733;47.994;8.820;2024-01-16T07:06:59;-8.30;88.20
7384;DHT22;3733;47.994;8.820;2024-01-16T07:09:25;-8.30;88.20
7384;DHT22;3733;47.994;8.820;2024-01-16T07:11:52;-8.30;89.20
7384;DHT22;3733;47.994;8.820;2024-01-16T07:14:18;-8.30;89.60
7384;DHT22;3733;47.994;8.820;2024-01-16T07:16:45;-8.30;89.50
7384;DHT22;3733;47.994;8.820;2024-01-16T07:19:10;-8.30;88.60
7384;DHT22;3733;47.994;8.820;2024-01-16T07:21:37;-8.30;87.90
7384;DHT22;3733;47.994;8.820;2024-01-16T07:24:03;-8.30;87.00
7384;DHT22;3733;47.994;8.820;2024-01-16T07:26:29;-8.30;86.70
7384;DHT22;3733;47.994;8.820;2024-01-16T07:28:55;-8.30;85.60
7384;DHT22;3733;47.994;8.820;2024-01-16T07:31:21;-8.30;85.40
7384;DHT22;3733;47.994;8.820;2024-01-16T07:33:46;-8.30;85.80
7384;DHT22;3733;47.994;8.820;2024-01-16T07:36:12;-8.30;85.90
7384;DHT22;3733;47.994;8.820;2024-01-16T07:38:38;-8.30;85.90
7384;DHT22;3733;47.994;8.820;2024-01-16T07:41:04;-8.30;86.10
7384;DHT22;3733;47.994;8.820;2024-01-16T07:43:30;-8.30;86.70
7384;DHT22;3733;47.994;8.820;2024-01-16T07:45:56;-8.20;86.40
7384;DHT22;3733;47.994;8.820;2024-01-16T07:48:22;-8.20;85.80
7384;DHT22;3733;47.994;8.820;2024-01-16T07:50:51;-8.20;85.90
7384;DHT22;3733;47.994;8.820;2024-01-16T07:53:16;-8.20;85.20
7384;DHT22;3733;47.994;8.820;2024-01-16T07:55:42;-8.20;84.80
7384;DHT22;3733;47.994;8.820;2024-01-16T07:58:11;-8.10;85.20
7384;DHT22;3733;47.994;8.820;2024-01-16T08:00:36;-8.20;85.00
7384;DHT22;3733;47.994;8.820;2024-01-16T08:03:02;-8.10;86.20
7384;DHT22;3733;47.994;8.820;2024-01-16T08:05:28;-8.10;86.60
7384;DHT22;3733;47.994;8.820;2024-01-16T08:07:56;-8.10;86.00
7384;DHT22;3733;47.994;8.820;2024-01-16T08:10:21;-8.00;86.10
7384;DHT22;3733;47.994;8.820;2024-01-16T08:12:47;-8.00;84.50
7384;DHT22;3733;47.994;8.820;2024-01-16T08:15:13;-8.00;82.90
7384;DHT22;3733;47.994;8.820;2024-01-16T08:17:38;-7.90;82.90
7384;DHT22;3733;47.994;8.820;2024-01-16T08:20:05;-7.90;82.70
7384;DHT22;3733;47.994;8.820;2024-01-16T08:22:31;-7.90;83.80
7384;DHT22;3733;47.994;8.820;2024-01-16T08:24:56;-7.90;83.10
7384;DHT22;3733;47.994;8.820;2024-01-16T08:27:22;-7.90;83.30
7384;DHT22;3733;47.994;8.820;2024-01-16T08:29:48;-7.90;83.50
7384;DHT22;3733;47.994;8.820;2024-01-16T08:32:16;-7.80;84.60
7384;DHT22;3733;47.994;8.820;2024-01-16T08:34:42;-7.80;85.60
7384;DHT22;3733;47.994;8.820;2024-01-16T08:37:08;-7.70;87.50
7384;DHT22;3733;47.994;8.820;2024-01-16T08:39:34;-7.60;87.40
7384;DHT22;3733;47.994;8.820;2024-01-16T08:42:00;-7.60;87.80
7384;DHT22;3733;47.994;8.820;2024-01-16T08:44:27;-7.50;89.70
7384;DHT22;3733;47.994;8.820;2024-01-16T08:46:53;-7.40;90.50
7384;DHT22;3733;47.994;8.820;2024-01-16T08:49:19;-7.40;90.20
7384;DHT22;3733;47.994;8.820;2024-01-16T08:51:44;-7.30;89.10
7384;DHT22;3733;47.994;8.820;2024-01-16T08:54:10;-7.20;90.00
7384;DHT22;3733;47.994;8.820;2024-01-16T08:56:35;-7.20;90.70
7384;DHT22;3733;47.994;8.820;2024-01-16T08:59:02;-7.10;90.50
7384;DHT22;3733;47.994;8.820;2024-01-16T09:01:27;-7.00;90.40
7384;DHT22;3733;47.994;8.820;2024-01-16T09:03:53;-6.90;88.80
7384;DHT22;3733;47.994;8.820;2024-01-16T09:06:18;-6.80;87.80
7384;DHT22;3733;47.994;8.820;2024-01-16T09:08:44;-6.80;86.10
7384;DHT22;3733;47.994;8.820;2024-01-16T09:11:10;-6.80;86.50
7384;DHT22;3733;47.994;8.820;2024-01-16T09:13:37;-6.70;85.90
7384;DHT22;3733;47.994;8.820;2024-01-16T09:16:03;-6.70;86.30
7384;DHT22;3733;47.994;8.820;2024-01-16T09:18:29;-6.60;87.50
7384;DHT22;3733;47.994;8.820;2024-01-16T09:20:55;-6.50;87.90
7384;DHT22;3733;47.994;8.820;2024-01-16T09:23:21;-6.40;87.00
7384;DHT22;3733;47.994;8.820;2024-01-16T09:25:47;-6.30;85.50
7384;DHT22;3733;47.994;8.820;2024-01-16T09:28:13;-6.20;83.60
7384;DHT22;3733;47.994;8.820;2024-01-16T09:30:38;-6.10;83.60
7384;DHT22;3733;47.994;8.820;2024-01-16T09:33:04;-6.00;83.50
7384;DHT22;3733;47.994;8.820;2024-01-16T09:35:32;-6.00;81.50
7384;DHT22;3733;47.994;8.820;2024-01-16T09:37:58;-5.80;81.80
7384;DHT22;3733;47.994;8.820;2024-01-16T09:40:25;-5.70;79.80
7384;DHT22;3733;47.994;8.820;2024-01-16T09:42:51;-5.60;77.10
7384;DHT22;3733;47.994;8.820;2024-01-16T09:45:20;-5.40;75.70
7384;DHT22;3733;47.994;8.820;2024-01-16T09:47:48;-5.40;73.60
7384;DHT22;3733;47.994;8.820;2024-01-16T09:50:15;-5.30;74.00
7384;DHT22;3733;47.994;8.820;2024-01-16T09:52:44;-5.30;74.50
7384;DHT22;3733;47.994;8.820;2024-01-16T09:55:10;-5.20;73.30
7384;DHT22;3733;47.994;8.820;2024-01-16T09:57:39;-5.20;72.10
7384;DHT22;3733;47.994;8.820;2024-01-16T10:00:08;-5.10;71.50
7384;DHT22;3733;47.994;8.820;2024-01-16T10:02:41;-5.10;71.80
7384;DHT22;3733;47.994;8.820;2024-01-16T10:05:08;-5.00;72.90
7384;DHT22;3733;47.994;8.820;2024-01-16T10:07:37;-4.90;73.20
7384;DHT22;3733;47.994;8.820;2024-01-16T10:10:03;-4.80;72.40
7384;DHT22;3733;47.994;8.820;2024-01-16T10:12:30;-4.70;71.80
7384;DHT22;3733;47.994;8.820;2024-01-16T10:14:56;-4.50;71.90
7384;DHT22;3733;47.994;8.820;2024-01-16T10:17:21;-4.50;70.20
7384;DHT22;3733;47.994;8.820;2024-01-16T10:22:23;-4.20;69.70
7384;DHT22;3733;47.994;8.820;2024-01-16T10:24:55;-4.20;68.70
7384;DHT22;3733;47.994;8.820;2024-01-16T10:27:29;-4.10;68.50
7384;DHT22;3733;47.994;8.820;2024-01-16T10:29:57;-4.00;68.90
7384;DHT22;3733;47.994;8.820;2024-01-16T10:32:38;-3.80;69.00
7384;DHT22;3733;47.994;8.820;2024-01-16T10:37:44;-3.70;67.90
7384;DHT22;3733;47.994;8.820;2024-01-16T10:40:10;-3.50;68.40
7384;DHT22;3733;47.994;8.820;2024-01-16T10:42:37;-3.50;67.80
7384;DHT22;3733;47.994;8.820;2024-01-16T10:45:05;-3.40;67.80
7384;DHT22;3733;47.994;8.820;2024-01-16T10:47:31;-3.30;68.00
7384;DHT22;3733;47.994;8.820;2024-01-16T10:50:00;-3.20;68.00
7384;DHT22;3733;47.994;8.820;2024-01-16T10:52:28;-3.00;68.60
7384;DHT22;3733;47.994;8.820;2024-01-16T10:54:57;-2.90;68.60
7384;DHT22;3733;47.994;8.820;2024-01-16T10:57:25;-2.70;67.60
7384;DHT22;3733;47.994;8.820;2024-01-16T11:00:03;-2.60;66.60
7384;DHT22;3733;47.994;8.820;2024-01-16T11:03:04;-2.50;66.30
7384;DHT22;3733;47.994;8.820;2024-01-16T11:05:31;-2.40;65.50
7384;DHT22;3733;47.994;8.820;2024-01-16T11:07:59;-2.20;65.60
7384;DHT22;3733;47.994;8.820;2024-01-16T11:10:27;-2.10;65.50
7384;DHT22;3733;47.994;8.820;2024-01-16T11:12:54;-1.90;65.20
7384;DHT22;3733;47.994;8.820;2024-01-16T11:15:24;-1.80;65.00
7384;DHT22;3733;47.994;8.820;2024-01-16T11:17:54;-1.70;64.60
7384;DHT22;3733;47.994;8.820;2024-01-16T11:20:27;-1.50;64.00
7384;DHT22;3733;47.994;8.820;2024-01-16T11:22:53;-1.50;63.50
7384;DHT22;3733;47.994;8.820;2024-01-16T11:25:33;-1.40;63.50
7384;DHT22;3733;47.994;8.820;2024-01-16T11:28:14;-1.40;63.30
7384;DHT22;3733;47.994;8.820;2024-01-16T11:30:41;-1.40;63.70
7384;DHT22;3733;47.994;8.820;2024-01-16T11:35:56;-1.10;63.90
7384;DHT22;3733;47.994;8.820;2024-01-16T11:38:22;-0.90;64.10
7384;DHT22;3733;47.994;8.820;2024-01-16T11:40:48;-0.60;63.90
7384;DHT22;3733;47.994;8.820;2024-01-16T11:46:01;-0.30;61.40
7384;DHT22;3733;47.994;8.820;2024-01-16T11:48:27;-0.20;61.50
7384;DHT22;3733;47.994;8.820;2024-01-16T11:50:53;-0.10;60.90
7384;DHT22;3733;47.994;8.820;2024-01-16T11:53:37;0.00;60.60
7384;DHT22;3733;47.994;8.820;2024-01-16T11:56:11;0.10;60.30
7384;DHT22;3733;47.994;8.820;2024-01-16T11:59:13;0.20;60.40
7384;DHT22;3733;47.994;8.820;2024-01-16T12:01:44;0.20;60.30
7384;DHT22;3733;47.994;8.820;2024-01-16T12:04:10;0.30;60.40
7384;DHT22;3733;47.994;8.820;2024-01-16T12:06:36;0.20;60.20
7384;DHT22;3733;47.994;8.820;2024-01-16T12:09:13;0.20;59.60
7384;DHT22;3733;47.994;8.820;2024-01-16T12:11:40;0.10;59.70
7384;DHT22;3733;47.994;8.820;2024-01-16T12:14:06;0.00;60.20
7384;DHT22;3733;47.994;8.820;2024-01-16T12:16:32;0.00;60.40
7384;DHT22;3733;47.994;8.820;2024-01-16T12:19:09;-0.10;60.70
7384;DHT22;3733;47.994;8.820;2024-01-16T12:21:45;-0.20;60.90
7384;DHT22;3733;47.994;8.820;2024-01-16T12:24:11;-0.20;61.10
7384;DHT22;3733;47.994;8.820;2024-01-16T12:26:37;-0.30;61.60
7384;DHT22;3733;47.994;8.820;2024-01-16T12:29:04;-0.30;62.10
7384;DHT22;3733;47.994;8.820;2024-01-16T12:31:30;-0.40;62.70
7384;DHT22;3733;47.994;8.820;2024-01-16T12:34:08;-0.40;61.90
7384;DHT22;3733;47.994;8.820;2024-01-16T12:36:35;-0.40;62.30
7384;DHT22;3733;47.994;8.820;2024-01-16T12:39:00;-0.40;62.90
7384;DHT22;3733;47.994;8.820;2024-01-16T12:41:34;-0.50;63.40
7384;DHT22;3733;47.994;8.820;2024-01-16T12:44:02;-0.40;63.70
7384;DHT22;3733;47.994;8.820;2024-01-16T12:46:28;-0.40;64.00
7384;DHT22;3733;47.994;8.820;2024-01-16T12:49:00;-0.40;64.10
7384;DHT22;3733;47.994;8.820;2024-01-16T12:51:26;-0.30;64.10
7384;DHT22;3733;47.994;8.820;2024-01-16T12:53:52;-0.30;64.30
7384;DHT22;3733;47.994;8.820;2024-01-16T12:56:20;-0.30;64.30
7384;DHT22;3733;47.994;8.820;2024-01-16T12:58:46;-0.30;64.40
7384;DHT22;3733;47.994;8.820;2024-01-16T13:01:26;-0.20;64.60
7384;DHT22;3733;47.994;8.820;2024-01-16T13:03:53;-0.20;64.70
7384;DHT22;3733;47.994;8.820;2024-01-16T13:06:23;-0.20;64.60
7384;DHT22;3733;47.994;8.820;2024-01-16T13:08:49;-0.10;64.70
7384;DHT22;3733;47.994;8.820;2024-01-16T13:11:16;-0.10;64.90
7384;DHT22;3733;47.994;8.820;2024-01-16T13:13:48;-0.10;64.80
7384;DHT22;3733;47.994;8.820;2024-01-16T13:16:14;0.00;64.80
7384;DHT22;3733;47.994;8.820;2024-01-16T13:18:41;0.00;64.70
7384;DHT22;3733;47.994;8.820;2024-01-16T13:21:06;0.10;64.80
7384;DHT22;3733;47.994;8.820;2024-01-16T13:23:32;0.10;64.60
7384;DHT22;3733;47.994;8.820;2024-01-16T13:25:58;0.10;64.30
7384;DHT22;3733;47.994;8.820;2024-01-16T13:28:24;0.10;64.20
7384;DHT22;3733;47.994;8.820;2024-01-16T13:30:50;0.10;64.10
7384;DHT22;3733;47.994;8.820;2024-01-16T13:33:16;0.20;64.20
7384;DHT22;3733;47.994;8.820;2024-01-16T13:35:43;0.20;64.30
7384;DHT22;3733;47.994;8.820;2024-01-16T13:38:10;0.30;64.30
7384;DHT22;3733;47.994;8.820;2024-01-16T13:40:36;0.40;63.90
7384;DHT22;3733;47.994;8.820;2024-01-16T13:43:06;0.60;63.60
7384;DHT22;3733;47.994;8.820;2024-01-16T13:45:34;0.70;62.90
7384;DHT22;3733;47.994;8.820;2024-01-16T13:48:04;0.80;62.70
7384;DHT22;3733;47.994;8.820;2024-01-16T13:50:31;1.00;62.00
7384;DHT22;3733;47.994;8.820;2024-01-16T13:52:57;1.10;61.70
7384;DHT22;3733;47.994;8.820;2024-01-16T13:55:23;1.30;61.20
7384;DHT22;3733;47.994;8.820;2024-01-16T13:57:49;1.50;60.60
7384;DHT22;3733;47.994;8.820;2024-01-16T14:00:15;1.60;59.90
7384;DHT22;3733;47.994;8.820;2024-01-16T14:02:44;1.70;59.70
7384;DHT22;3733;47.994;8.820;2024-01-16T14:05:11;1.60;59.00
7384;DHT22;3733;47.994;8.820;2024-01-16T14:07:41;1.50;58.90
7384;DHT22;3733;47.994;8.820;2024-01-16T14:10:10;1.30;59.00
7384;DHT22;3733;47.994;8.820;2024-01-16T14:12:41;1.00;59.20
7384;DHT22;3733;47.994;8.820;2024-01-16T14:15:14;0.80;59.70
7384;DHT22;3733;47.994;8.820;2024-01-16T14:17:52;0.60;60.00
7384;DHT22;3733;47.994;8.820;2024-01-16T14:20:19;0.50;60.60
7384;DHT22;3733;47.994;8.820;2024-01-16T14:22:48;0.30;61.00
7384;DHT22;3733;47.994;8.820;2024-01-16T14:25:14;0.20;61.60
7384;DHT22;3733;47.994;8.820;2024-01-16T14:27:41;0.10;61.90
7384;DHT22;3733;47.994;8.820;2024-01-16T14:30:11;0.00;62.20
7384;DHT22;3733;47.994;8.820;2024-01-16T14:32:39;0.00;62.60
7384;DHT22;3733;47.994;8.820;2024-01-16T14:35:06;0.00;62.90
7384;DHT22;3733;47.994;8.820;2024-01-16T14:37:33;-0.10;63.00
7384;DHT22;3733;47.994;8.820;2024-01-16T14:39:59;-0.10;63.20
7384;DHT22;3733;47.994;8.820;2024-01-16T14:42:44;-0.20;63.30
7384;DHT22;3733;47.994;8.820;2024-01-16T14:45:10;-0.20;63.50
7384;DHT22;3733;47.994;8.820;2024-01-16T14:47:37;-0.20;63.80
7384;DHT22;3733;47.994;8.820;2024-01-16T14:50:03;-0.20;64.00
7384;DHT22;3733;47.994;8.820;2024-01-16T14:52:30;-0.30;64.30
7384;DHT22;3733;47.994;8.820;2024-01-16T14:54:58;-0.30;64.50
7384;DHT22;3733;47.994;8.820;2024-01-16T14:57:25;-0.30;64.70
7384;DHT22;3733;47.994;8.820;2024-01-16T14:59:50;-0.40;64.80
7384;DHT22;3733;47.994;8.820;2024-01-16T15:02:16;-0.40;64.90
7384;DHT22;3733;47.994;8.820;2024-01-16T15:04:42;-0.40;65.10
7384;DHT22;3733;47.994;8.820;2024-01-16T15:07:09;-0.40;65.30
7384;DHT22;3733;47.994;8.820;2024-01-16T15:09:34;-0.40;65.50
7384;DHT22;3733;47.994;8.820;2024-01-16T15:12:06;-0.50;65.80
7384;DHT22;3733;47.994;8.820;2024-01-16T15:14:32;-0.50;66.10
7384;DHT22;3733;47.994;8.820;2024-01-16T15:16:59;-0.50;66.40
7384;DHT22;3733;47.994;8.820;2024-01-16T15:19:25;-0.60;66.60
7384;DHT22;3733;47.994;8.820;2024-01-16T15:21:51;-0.60;66.80
7384;DHT22;3733;47.994;8.820;2024-01-16T15:24:17;-0.60;67.20
7384;DHT22;3733;47.994;8.820;2024-01-16T15:26:55;-0.70;67.40
7384;DHT22;3733;47.994;8.820;2024-01-16T15:29:24;-0.70;67.90
7384;DHT22;3733;47.994;8.820;2024-01-16T15:31:51;-0.80;68.10
7384;DHT22;3733;47.994;8.820;2024-01-16T15:34:21;-0.80;68.60
7384;DHT22;3733;47.994;8.820;2024-01-16T15:36:47;-0.90;68.80
7384;DHT22;3733;47.994;8.820;2024-01-16T15:39:14;-0.90;69.30
7384;DHT22;3733;47.994;8.820;2024-01-16T15:41:43;-0.90;69.70
7384;DHT22;3733;47.994;8.820;2024-01-16T15:44:10;-1.00;70.00
7384;DHT22;3733;47.994;8.820;2024-01-16T15:46:58;-1.00;70.30
7384;DHT22;3733;47.994;8.820;2024-01-16T15:49:28;-1.00;70.70
7384;DHT22;3733;47.994;8.820;2024-01-16T15:51:55;-1.10;71.00
7384;DHT22;3733;47.994;8.820;2024-01-16T15:54:20;-1.10;71.40
7384;DHT22;3733;47.994;8.820;2024-01-16T15:56:46;-1.20;71.90
7384;DHT22;3733;47.994;8.820;2024-01-16T15:59:13;-1.20;72.60
7384;DHT22;3733;47.994;8.820;2024-01-16T16:01:39;-1.30;72.80
7384;DHT22;3733;47.994;8.820;2024-01-16T16:04:05;-1.40;72.80
7384;DHT22;3733;47.994;8.820;2024-01-16T16:06:38;-1.40;73.40
7384;DHT22;3733;47.994;8.820;2024-01-16T16:09:04;-1.50;74.10
7384;DHT22;3733;47.994;8.820;2024-01-16T16:11:36;-1.50;74.30
7384;DHT22;3733;47.994;8.820;2024-01-16T16:14:04;-1.60;75.10